Time;durP1;ratioP1;P1;durP2;ratioP2;P2;SDS_P1;SDS_P2;PMS_P1;PMS_P2;Temp;Humidity;BMP_temperature;BMP_pressure;BME280_temperature;BME280_humidity;BME280_pressure;Samples;Min_cycle;Max_cycle;Signal;HPM_P1;HPM_P2
2024/03/14 00:01:58;;;;;;;4.60;3.90;;;;;;;12.33;100.00;101388.00;5252546;28;20047;-81
2024/03/14 00:04:31;;;;;;;4.40;3.80;;;;;;;12.17;100.00;101371.84;5251675;28;20043;-82
2024/03/14 00:07:03;;;;;;;5.13;3.80;;;;;;;12.16;100.00;101373.66;5253933;28;20033;-81
2024/03/14 00:09:35;;;;;;;4.72;3.75;;;;;;;12.22;100.00;101393.31;5252368;28;20059;-81
2024/03/14 00:12:07;;;;;;;4.28;3.88;;;;;;;12.21;100.00;101377.69;5231719;28;20332;-81
2024/03/14 00:14:44;;;;;;;5.57;4.07;;;;;;;12.20;100.00;101383.88;5250461;28;20038;-81
2024/03/14 00:17:19;;;;;;;5.75;4.20;;;;;;;12.19;100.00;101385.69;5251275;28;20021;-81
2024/03/14 00:19:51;;;;;;;6.28;4.47;;;;;;;12.17;100.00;101390.25;5249469;28;20039;-82
2024/03/14 00:22:23;;;;;;;5.90;4.25;;;;;;;12.16;100.00;101383.34;5250054;28;20036;-81
2024/03/14 00:24:57;;;;;;;5.63;4.05;;;;;;;12.14;100.00;101383.44;5232821;28;20555;-81
2024/03/14 00:27:28;;;;;;;6.10;4.60;;;;;;;12.13;100.00;101383.59;5249251;28;20037;-81
2024/03/14 00:30:00;;;;;;;6.55;4.47;;;;;;;12.13;100.00;101384.41;5251622;28;20043;-81
2024/03/14 00:32:34;;;;;;;5.82;4.38;;;;;;;12.07;100.00;101377.03;5250947;28;20454;-82
2024/03/14 00:35:06;;;;;;;7.57;5.07;;;;;;;12.06;100.00;101370.13;5251505;28;20021;-82
2024/03/14 00:37:39;;;;;;;6.13;4.93;;;;;;;12.09;100.00;101371.66;5259382;28;20682;-81
2024/03/14 00:40:11;;;;;;;6.07;4.77;;;;;;;12.04;100.00;101368.56;5259548;28;20361;-81
2024/03/14 00:42:45;;;;;;;8.77;5.18;;;;;;;12.02;100.00;101373.97;5257514;28;20505;-81
2024/03/14 00:45:19;;;;;;;5.95;4.93;;;;;;;12.02;100.00;101373.97;5255850;28;20041;-81
2024/03/14 00:47:50;;;;;;;6.35;5.53;;;;;;;11.94;100.00;101365.88;5253709;28;20048;-81
2024/03/14 00:50:23;;;;;;;5.90;4.93;;;;;;;11.84;100.00;101370.22;5252625;28;20031;-81
2024/03/14 00:52:55;;;;;;;7.05;5.65;;;;;;;11.82;100.00;101353.72;5254885;28;20315;-82
2024/03/14 00:55:28;;;;;;;7.13;5.90;;;;;;;11.92;100.00;101363.38;5256074;28;20462;-81
2024/03/14 00:58:02;;;;;;;6.97;6.28;;;;;;;11.85;100.00;101359.56;5253603;28;20049;-81
2024/03/14 01:00:34;;;;;;;7.80;5.85;;;;;;;11.84;100.00;101365.78;5256417;28;20036;-81
2024/03/14 01:03:08;;;;;;;7.82;6.03;;;;;;;11.84;100.00;101359.72;5257728;28;20037;-81
2024/03/14 01:05:40;;;;;;;7.03;6.03;;;;;;;11.73;100.00;101347.44;5253560;28;20505;-81
2024/03/14 01:08:12;;;;;;;6.63;6.03;;;;;;;11.78;100.00;101360.16;5256276;28;20040;-81
2024/03/14 01:10:44;;;;;;;9.43;6.38;;;;;;;11.79;100.00;101361.84;5229048;28;20049;-81
2024/03/14 01:13:16;;;;;;;7.38;6.57;;;;;;;11.75;100.00;101357.81;5258189;28;20486;-81
2024/03/14 01:15:48;;;;;;;7.50;6.13;;;;;;;11.65;100.00;101348.06;5255776;28;20482;-81
2024/03/14 01:18:20;;;;;;;7.07;5.75;;;;;;;11.70;100.00;101358.16;5254211;28;20033;-81
2024/03/14 01:20:51;;;;;;;6.85;5.82;;;;;;;11.74;100.00;101361.38;5255047;28;20043;-81
2024/03/14 01:23:23;;;;;;;6.72;5.95;;;;;;;11.68;100.00;101352.22;5257312;28;20028;-81
2024/03/14 01:25:55;;;;;;;7.03;6.32;;;;;;;11.73;100.00;101359.72;5259828;28;20032;-81
2024/03/14 01:28:29;;;;;;;7.93;6.05;;;;;;;11.75;100.00;101357.81;5260073;28;20401;-81
2024/03/14 01:31:02;;;;;;;8.27;6.28;;;;;;;11.70;100.00;101347.66;5253987;28;20556;-81
2024/03/14 01:33:34;;;;;;;9.27;6.75;;;;;;;11.75;100.00;101349.94;5258106;28;20038;-81
2024/03/14 01:36:06;;;;;;;7.05;6.32;;;;;;;11.73;100.00;101343.97;5258842;28;20663;-81
2024/03/14 01:38:38;;;;;;;8.98;6.78;;;;;;;11.72;100.00;101348.41;5258992;28;20036;-81
2024/03/14 01:41:18;;;;;;;8.13;7.00;;;;;;;11.83;100.00;101345.75;5258324;28;20755;-81
2024/03/14 01:44:00;;;;;;;7.32;6.63;;;;;;;11.84;100.00;101341.34;5254915;28;20032;-81
2024/03/14 01:46:33;;;;;;;7.28;6.38;;;;;;;11.69;100.00;101338.97;5257951;28;20025;-81
2024/03/14 01:49:05;;;;;;;6.90;6.20;;;;;;;11.67;100.00;101329.56;5254522;28;20029;-81
2024/03/14 01:51:37;;;;;;;7.68;6.57;;;;;;;11.65;100.00;101334.94;5255451;28;20037;-81
2024/03/14 01:54:11;;;;;;;7.32;6.45;;;;;;;11.67;100.00;101333.03;5257414;28;20039;-81
2024/03/14 01:56:57;;;;;;;8.50;6.57;;;;;;;11.66;100.00;101335.75;5252241;28;20028;-81
2024/03/14 01:59:30;;;;;;;7.35;6.38;;;;;;;11.63;100.00;101330.75;5255801;28;20025;-81
2024/03/14 02:02:02;;;;;;;9.48;6.38;;;;;;;11.62;100.00;101324.69;5252815;28;20036;-81
2024/03/14 02:05:11;;;;;;;7.47;6.72;;;;;;;11.86;100.00;101319.25;5258316;28;20033;-81
2024/03/14 02:07:45;;;;;;;6.97;6.28;;;;;;;11.65;100.00;101319.19;5254517;28;20037;-81
2024/03/14 02:10:23;;;;;;;6.82;6.22;;;;;;;11.60;100.00;101321.38;5256406;28;20552;-81
2024/03/14 02:12:56;;;;;;;7.20;6.35;;;;;;;11.54;100.00;101310.53;5255880;28;20040;-81
2024/03/14 02:15:28;;;;;;;8.23;7.30;;;;;;;11.50;100.00;101306.47;5256805;28;20044;-81
2024/03/14 02:18:00;;;;;;;7.53;6.83;;;;;;;11.54;100.00;101315.78;5256881;28;20044;-81
2024/03/14 02:20:32;;;;;;;7.45;6.72;;;;;;;11.54;100.00;101318.41;5258044;28;20636;-81
2024/03/14 02:23:04;;;;;;;7.95;6.63;;;;;;;11.52;100.00;101309.84;5255423;28;20040;-81
2024/03/14 02:25:36;;;;;;;7.93;7.17;;;;;;;11.53;100.00;101308.88;5253942;28;20044;-81
2024/03/14 02:28:08;;;;;;;7.75;6.95;;;;;;;11.40;100.00;101299.38;5255368;28;20288;-81
2024/03/14 02:30:40;;;;;;;7.65;6.95;;;;;;;11.35;100.00;101287.56;5255610;28;20037;-81
2024/03/14 02:33:13;;;;;;;8.82;7.53;;;;;;;11.43;100.00;101290.41;5256883;28;20031;-81
2024/03/14 02:35:45;;;;;;;9.20;8.30;;;;;;;11.42;100.00;101283.50;5255690;28;20055;-81
2024/03/14 02:38:16;;;;;;;9.43;8.25;;;;;;;11.38;100.00;101288.16;5251690;28;20295;-81
2024/03/14 02:40:48;;;;;;;9.30;8.38;;;;;;;11.34;100.00;101283.28;5252014;28;20040;-81
2024/03/14 02:43:22;;;;;;;9.23;8.32;;;;;;;11.35;100.00;101291.03;5250064;28;20310;-81
2024/03/14 02:45:54;;;;;;;9.18;8.10;;;;;;;11.32;100.00;101283.41;5256752;28;20356;-81
2024/03/14 02:48:26;;;;;;;9.07;8.18;;;;;;;11.32;100.00;101282.56;5252995;28;20032;-81
2024/03/14 02:50:58;;;;;;;9.45;8.52;;;;;;;11.30;100.00;101280.06;5256470;28;20040;-81
2024/03/14 02:53:30;;;;;;;10.13;8.98;;;;;;;11.31;100.00;101286.97;5253491;28;20024;-81
2024/03/14 02:56:02;;;;;;;9.98;9.07;;;;;;;11.28;100.00;101281.16;5255558;28;20033;-81
2024/03/14 02:58:38;;;;;;;9.75;8.77;;;;;;;11.33;100.00;101282.47;5250668;28;20039;-81
2024/03/14 03:01:09;;;;;;;11.02;8.35;;;;;;;11.28;100.00;101275.91;5253898;28;20033;-81
2024/03/14 03:03:41;;;;;;;9.40;8.50;;;;;;;11.28;100.00;101281.97;5251482;28;20171;-81
2024/03/14 03:06:15;;;;;;;11.18;8.60;;;;;;;11.24;100.00;101267.44;5248792;28;20044;-81
2024/03/14 03:08:47;;;;;;;;;;;;;;;11.90;100.00;101272.56;5247598;28;20667;-81
2024/03/14 03:11:19;;;;;;;8.70;7.85;;;;;;;11.32;100.00;101261.59;5251530;28;19920;-81
2024/03/14 03:13:51;;;;;;;9.90;8.85;;;;;;;11.25;100.00;101265.66;5250182;28;20048;-81
2024/03/14 03:16:24;;;;;;;9.95;8.20;;;;;;;11.23;100.00;101259.72;5250734;28;20040;-81
2024/03/14 03:18:58;;;;;;;8.93;8.02;;;;;;;11.21;100.00;101257.19;5248367;28;20025;-81
2024/03/14 03:21:33;;;;;;;8.80;7.93;;;;;;;11.23;100.00;101251.84;5232403;28;20044;-81
2024/03/14 03:24:08;;;;;;;9.63;8.73;;;;;;;11.16;100.00;101254.97;5244778;28;20041;-81
2024/03/14 03:26:43;;;;;;;9.70;8.65;;;;;;;11.15;100.00;101260.34;5256407;28;20379;-81
2024/03/14 03:29:16;;;;;;;8.88;7.97;;;;;;;11.05;100.00;101238.44;5249567;28;20037;-81
2024/03/14 03:31:49;;;;;;;9.18;7.95;;;;;;;11.15;100.00;101252.47;5233922;28;20044;-81
2024/03/14 03:34:23;;;;;;;8.55;7.75;;;;;;;11.12;100.00;101240.44;5237430;28;20048;-81
2024/03/14 03:36:55;;;;;;;8.90;8.00;;;;;;;11.10;100.00;101252.84;5253976;28;20021;-81
2024/03/14 03:39:27;;;;;;;8.30;7.50;;;;;;;11.06;100.00;101253.19;5250577;28;20037;-81
2024/03/14 03:41:59;;;;;;;8.50;7.70;;;;;;;11.06;100.00;101246.19;5250539;28;20047;-81
2024/03/14 03:44:31;;;;;;;8.65;7.20;;;;;;;11.03;100.00;101245.59;5254717;28;20040;-81
2024/03/14 03:47:02;;;;;;;8.00;7.20;;;;;;;10.98;100.00;101247.72;5251943;28;20029;-81
2024/03/14 03:49:35;;;;;;;7.97;7.20;;;;;;;10.96;100.00;101248.69;5252184;28;20040;-81
2024/03/14 03:52:06;;;;;;;7.20;6.50;;;;;;;10.92;100.00;101246.44;5251612;28;20059;-81
2024/03/14 03:54:42;;;;;;;7.82;6.85;;;;;;;11.00;100.00;101251.91;5234658;28;20044;-81
2024/03/14 03:57:14;;;;;;;7.07;6.38;;;;;;;10.85;100.00;101240.84;5229676;28;20043;-81
2024/03/14 03:59:46;;;;;;;7.40;6.60;;;;;;;10.89;100.00;101244.91;5232561;28;20040;-81
2024/03/14 04:02:18;;;;;;;7.47;6.45;;;;;;;10.85;100.00;101235.63;5252270;28;20035;-81
2024/03/14 04:04:50;;;;;;;8.27;6.68;;;;;;;10.84;100.00;101244.44;5250321;28;20037;-81
2024/03/14 04:07:26;;;;;;;7.40;6.70;;;;;;;10.87;100.00;101238.97;5257188;28;20505;-81
2024/03/14 04:09:57;;;;;;;9.48;6.95;;;;;;;10.79;100.00;101251.81;5252964;28;20497;-81
2024/03/14 04:12:29;;;;;;;10.40;6.75;;;;;;;10.78;100.00;101241.47;5249091;28;20024;-81
2024/03/14 04:15:01;;;;;;;7.22;6.53;;;;;;;10.85;100.00;101240.84;5249430;28;20044;-81
2024/03/14 04:17:33;;;;;;;6.50;5.68;;;;;;;10.80;100.00;101236.94;5251298;28;20120;-81
2024/03/14 04:20:11;;;;;;;6.53;5.63;;;;;;;10.79;100.00;101241.34;5248905;28;20037;-81
2024/03/14 04:22:44;;;;;;;6.18;5.57;;;;;;;10.76;100.00;101245.97;5248357;28;20394;-81
2024/03/14 04:25:17;;;;;;;;;;;;;;;11.42;100.00;101244.16;5249570;28;20350;-81
2024/03/14 04:27:53;;;;;;;7.30;5.50;;;;;;;10.76;100.00;101245.97;5251753;28;19920;-81
2024/03/14 04:30:25;;;;;;;6.18;5.50;;;;;;;10.67;100.00;101250.16;5252610;28;20036;-81
2024/03/14 04:32:57;;;;;;;6.15;4.93;;;;;;;10.54;100.00;101223.28;5248336;28;20037;-81
2024/03/14 04:35:31;;;;;;;8.60;5.45;;;;;;;10.62;100.00;101239.22;5254278;28;20389;-81
2024/03/14 04:38:02;;;;;;;5.10;4.60;;;;;;;10.63;100.00;101244.34;5252417;28;20025;-81
2024/03/14 04:40:34;;;;;;;5.32;4.82;;;;;;;10.53;100.00;101245.16;5251511;28;20047;-81
2024/03/14 04:43:09;;;;;;;7.70;5.50;;;;;;;10.52;100.00;101246.97;5250200;28;20035;-81
2024/03/14 04:45:41;;;;;;;5.95;5.25;;;;;;;10.44;100.00;101233.63;5253316;28;20065;-81
2024/03/14 04:48:13;;;;;;;7.20;4.22;;;;;;;10.48;100.00;101237.69;5250475;28;20314;-81
2024/03/14 04:50:46;;;;;;;6.22;4.68;;;;;;;10.45;100.00;101230.91;5252525;28;20043;-81
2024/03/14 04:53:18;;;;;;;5.65;4.38;;;;;;;10.42;100.00;101235.56;5254298;28;20513;-81
2024/03/14 04:55:54;;;;;;;6.90;4.57;;;;;;;10.39;100.00;101233.16;5250869;28;20040;-81
2024/03/14 04:58:26;;;;;;;6.32;4.63;;;;;;;10.42;100.00;101223.28;5243275;28;20048;-81
2024/03/14 05:00:58;;;;;;;5.55;4.88;;;;;;;10.45;100.00;101228.28;5252311;28;20033;-80
2024/03/14 05:03:30;;;;;;;5.45;4.95;;;;;;;10.42;100.00;101225.91;5252400;28;20043;-81
2024/03/14 05:06:03;;;;;;;6.07;4.43;;;;;;;10.42;100.00;101230.31;5251680;28;20792;-81
2024/03/14 05:08:35;;;;;;;;;;;;;;;11.13;100.00;101222.91;5248801;28;20254;-81
2024/03/14 05:11:07;;;;;;;4.88;4.38;;;;;;;10.35;100.00;101222.09;5250504;28;19931;-81
2024/03/14 05:13:39;;;;;;;7.50;4.72;;;;;;;10.32;100.00;101227.56;5246671;28;20044;-81
2024/03/14 05:16:11;;;;;;;4.80;4.30;;;;;;;10.24;100.00;101224.69;5252541;28;20037;-81
2024/03/14 05:18:44;;;;;;;4.97;4.47;;;;;;;10.27;100.00;101229.72;5247608;28;20043;-81
2024/03/14 05:21:15;;;;;;;6.18;4.70;;;;;;;10.28;100.00;101225.31;5252856;28;20024;-81
2024/03/14 05:23:47;;;;;;;4.38;3.83;;;;;;;10.29;100.00;101229.59;5252563;28;20040;-81
2024/03/14 05:26:19;;;;;;;5.00;4.10;;;;;;;10.26;100.00;101220.19;5256706;28;20373;-80
2024/03/14 05:28:51;;;;;;;4.78;3.92;;;;;;;10.30;100.00;101232.06;5250823;28;20036;-81
2024/03/14 05:31:23;;;;;;;4.72;4.28;;;;;;;10.28;100.00;101223.53;5251740;28;20035;-80
2024/03/14 05:33:55;;;;;;;4.50;3.90;;;;;;;10.29;100.00;101229.59;5248146;28;20032;-80
2024/03/14 05:36:27;;;;;;;4.95;4.45;;;;;;;10.26;100.00;101228.03;5252565;28;20047;-81
2024/03/14 05:38:59;;;;;;;3.63;3.30;;;;;;;10.26;100.00;101225.41;5252974;28;20036;-81
2024/03/14 05:41:31;;;;;;;7.50;3.75;;;;;;;10.24;100.00;101233.38;5245285;28;20048;-81
2024/03/14 05:44:04;;;;;;;4.13;3.72;;;;;;;10.23;100.00;101223.84;5250062;28;20049;-81
2024/03/14 05:46:36;;;;;;;;;;;;;;;10.93;100.00;101220.09;5254784;28;20032;-81
2024/03/14 05:49:08;;;;;;;7.00;4.00;;;;;;;10.30;100.00;101220.78;5257300;28;19916;-82
2024/03/14 05:51:40;;;;;;;5.30;3.95;;;;;;;10.25;100.00;101218.50;5251253;28;20033;-81
2024/03/14 05:54:12;;;;;;;5.03;3.60;;;;;;;10.18;100.00;101210.25;5258777;28;20036;-82
2024/03/14 05:56:44;;;;;;;5.55;4.35;;;;;;;10.23;100.00;101220.41;5257280;28;20037;-81
2024/03/14 05:59:16;;;;;;;5.28;3.90;;;;;;;10.09;100.00;101205.75;5253096;28;20454;-81
2024/03/14 06:01:48;;;;;;;5.10;4.18;;;;;;;10.15;100.00;101212.28;5255528;28;20033;-81
2024/03/14 06:04:23;;;;;;;5.05;4.18;;;;;;;10.18;100.00;101218.13;5256839;28;20091;-81
2024/03/14 06:06:55;;;;;;;4.93;3.88;;;;;;;10.20;100.00;101210.16;5255315;28;20371;-82
2024/03/14 06:09:39;;;;;;;5.00;4.22;;;;;;;10.19;100.00;101218.94;5253627;28;20044;-82
2024/03/14 06:12:12;;;;;;;5.55;3.97;;;;;;;10.22;100.00;101218.72;5254578;28;20040;-82
2024/03/14 06:14:45;;;;;;;;;;;;;;;10.88;100.00;101213.56;5255856;28;20036;-82
2024/03/14 06:17:17;;;;;;;4.93;3.65;;;;;;;10.21;100.00;101228.34;5253956;28;19927;-82
2024/03/14 06:19:50;;;;;;;5.57;4.18;;;;;;;10.25;100.00;101215.91;5252033;28;20462;-82
2024/03/14 06:22:22;;;;;;;4.43;3.75;;;;;;;10.22;100.00;101224.78;5234313;28;20045;-82
2024/03/14 06:24:53;;;;;;;4.32;3.92;;;;;;;10.19;100.00;101225.03;5255750;28;20300;-82
2024/03/14 06:27:25;;;;;;;4.68;3.92;;;;;;;10.22;100.00;101221.34;5235318;28;20044;-81
2024/03/14 06:29:57;;;;;;;4.15;3.75;;;;;;;10.21;100.00;101223.13;5253314;28;20035;-81
2024/03/14 06:32:29;;;;;;;5.53;4.25;;;;;;;10.20;100.00;101229.31;5254991;28;20397;-81
2024/03/14 06:35:02;;;;;;;5.97;4.10;;;;;;;10.21;100.00;101225.75;5253366;28;20029;-82
2024/03/14 06:37:33;;;;;;;5.30;4.80;;;;;;;10.32;100.00;101232.81;5256368;28;20037;-81
2024/03/14 06:40:06;;;;;;;4.82;4.32;;;;;;;10.23;100.00;101228.25;5253602;28;20289;-82
2024/03/14 06:42:38;;;;;;;4.53;4.10;;;;;;;10.28;100.00;101225.31;5251885;28;20033;-81
2024/03/14 06:45:10;;;;;;;5.50;4.45;;;;;;;10.28;100.00;101223.53;5249279;28;20052;-82
2024/03/14 06:47:45;;;;;;;5.68;5.07;;;;;;;10.40;100.00;101233.03;5243733;28;20052;-81
2024/03/14 06:50:19;;;;;;;5.22;4.30;;;;;;;10.33;100.00;101224.00;5249281;28;20814;-82
2024/03/14 06:52:51;;;;;;;5.45;4.57;;;;;;;10.26;100.00;101220.19;5247072;28;20032;-82
2024/03/14 06:55:22;;;;;;;5.60;4.63;;;;;;;10.38;100.00;101229.72;5255869;28;20055;-82
2024/03/14 06:57:54;;;;;;;6.00;4.63;;;;;;;10.41;100.00;101233.88;5232809;28;20040;-81
2024/03/14 07:00:27;;;;;;;6.60;4.60;;;;;;;10.43;100.00;101234.59;5249319;28;20035;-81
2024/03/14 07:02:58;;;;;;;5.68;4.75;;;;;;;10.48;100.00;101237.69;5249786;28;20031;-82
2024/03/14 07:05:32;;;;;;;5.45;4.75;;;;;;;10.46;100.00;101226.50;5249769;28;20051;-81
2024/03/14 07:08:05;;;;;;;5.20;4.70;;;;;;;10.52;100.00;101225.19;5223445;28;20041;-80
2024/03/14 07:10:37;;;;;;;;;;;;;;;11.20;100.00;101224.06;5250908;28;20080;-80
2024/03/14 07:13:11;;;;;;;5.43;4.50;;;;;;;10.65;100.00;101218.03;5251510;28;19917;-80
2024/03/14 07:15:44;;;;;;;5.70;5.05;;;;;;;10.60;100.00;101214.91;5253707;28;20240;-81
2024/03/14 07:18:16;;;;;;;5.57;4.97;;;;;;;10.70;100.00;101221.94;5252806;28;20468;-80
2024/03/14 07:20:49;;;;;;;5.40;4.90;;;;;;;10.73;100.00;101217.41;5253827;28;20035;-79
2024/03/14 07:23:21;;;;;;;6.95;5.32;;;;;;;10.77;100.00;101217.06;5255533;28;20306;-80
2024/03/14 07:25:55;;;;;;;5.35;4.85;;;;;;;10.80;100.00;101219.44;5248964;28;20029;-79
2024/03/14 07:28:27;;;;;;;5.55;4.93;;;;;;;10.74;100.00;101209.44;5251202;28;20188;-79
2024/03/14 07:30:59;;;;;;;4.80;4.30;;;;;;;10.89;100.00;101221.31;5251286;28;20040;-80
2024/03/14 07:33:31;;;;;;;5.90;5.13;;;;;;;10.94;100.00;101226.16;5251683;28;20041;-79
2024/03/14 07:36:05;;;;;;;5.03;4.63;;;;;;;10.95;100.00;101218.19;5253591;28;20033;-79
2024/03/14 07:38:37;;;;;;;5.85;4.80;;;;;;;10.98;100.00;101216.28;5251831;28;20413;-79
2024/03/14 07:41:11;;;;;;;6.90;5.00;;;;;;;11.06;100.00;101219.09;5254026;28;20274;-79
2024/03/14 07:43:44;;;;;;;5.10;4.57;;;;;;;11.07;100.00;101212.94;5246277;28;20285;-79
2024/03/14 07:46:18;;;;;;;6.03;5.10;;;;;;;11.14;100.00;101216.72;5252144;28;20033;-80
2024/03/14 07:48:51;;;;;;;6.97;4.95;;;;;;;11.18;100.00;101224.22;5251721;28;20331;-79
2024/03/14 07:51:25;;;;;;;6.43;5.20;;;;;;;11.24;100.00;101215.00;5243731;28;20043;-80
2024/03/14 07:53:57;;;;;;;5.72;4.60;;;;;;;11.25;100.00;101219.31;5248392;28;20033;-79
2024/03/14 07:56:29;;;;;;;5.97;4.72;;;;;;;11.39;100.00;101215.53;5253084;28;20040;-80
2024/03/14 07:59:01;;;;;;;7.03;4.90;;;;;;;11.51;100.00;101218.94;5254583;28;20045;-79
2024/03/14 08:01:33;;;;;;;5.53;4.50;;;;;;;11.52;100.00;101218.00;5253689;28;20047;-79
2024/03/14 08:04:06;;;;;;;4.65;4.10;;;;;;;11.62;100.00;101216.25;5253750;28;20035;-80
2024/03/14 08:06:39;;;;;;;4.65;4.13;;;;;;;11.70;100.00;101205.94;5236876;28;20033;-79
2024/03/14 08:09:12;;;;;;;5.65;4.00;;;;;;;11.80;100.00;101212.09;5251250;28;20029;-80
2024/03/14 08:11:44;;;;;;;3.78;3.38;;;;;;;11.94;100.00;101203.09;5253674;28;20036;-79
2024/03/14 08:14:16;;;;;;;5.68;4.30;;;;;;;12.05;100.00;101210.06;5250354;28;20021;-79
2024/03/14 08:16:48;;;;;;;6.22;3.92;;;;;;;12.13;100.00;101210.22;5250157;28;20291;-79
2024/03/14 08:19:21;;;;;;;5.35;3.97;;;;;;;12.26;100.00;101215.25;5252704;28;20098;-80
2024/03/14 08:21:53;;;;;;;7.95;4.22;;;;;;;12.28;100.00;101210.72;5252056;28;20433;-80
2024/03/14 08:24:26;;;;;;;4.22;3.60;;;;;;;12.36;100.00;101214.34;5253079;28;20037;-80
2024/03/14 08:26:59;;;;;;;;;;;;;;;13.03;100.00;101215.47;5254291;28;20047;-80
2024/03/14 08:29:30;;;;;;;3.95;3.10;;;;;;;12.53;100.00;101222.53;5252803;28;19916;-80
2024/03/14 08:32:03;;;;;;;3.53;2.85;;;;;;;12.53;100.00;101218.13;5253720;28;20768;-80
2024/03/14 08:34:35;;;;;;;3.53;2.75;;;;;;;12.62;100.00;101221.75;5251101;28;20032;-80
2024/03/14 08:37:07;;;;;;;3.33;2.75;;;;;;;12.63;100.00;101208.47;5252071;28;20029;-80
2024/03/14 08:39:40;;;;;;;5.30;2.78;;;;;;;12.64;100.00;101223.28;5252976;28;20033;-80
2024/03/14 08:42:12;;;;;;;3.10;2.60;;;;;;;12.71;100.00;101220.13;5252257;28;20399;-79
2024/03/14 08:44:44;;;;;;;3.37;2.80;;;;;;;12.78;100.00;101211.56;5252833;28;20055;-80
2024/03/14 08:47:16;;;;;;;3.55;2.80;;;;;;;12.83;100.00;101211.97;5254032;28;20045;-80
2024/03/14 08:49:48;;;;;;;2.67;2.28;;;;;;;12.89;100.00;101203.53;5251236;28;20482;-80
2024/03/14 08:52:26;;;;;;;3.15;2.58;;;;;;;13.05;100.00;101208.25;5255511;28;20032;-80
2024/03/14 08:54:58;;;;;;;3.30;2.70;;;;;;;13.17;100.00;101208.97;5249334;28;20048;-80
2024/03/14 08:57:33;;;;;;;3.10;2.47;;;;;;;13.30;100.00;101204.31;5254173;28;20024;-80
2024/03/14 09:00:05;;;;;;;3.13;2.50;;;;;;;13.45;100.00;101211.75;5256500;28;20032;-80
2024/03/14 09:02:37;;;;;;;3.85;2.15;;;;;;;13.55;100.00;101205.50;5259761;28;20490;-80
2024/03/14 09:05:14;;;;;;;3.22;2.60;;;;;;;13.52;100.00;101204.97;5256462;28;20032;-80
2024/03/14 09:07:46;;;;;;;4.55;2.38;;;;;;;13.48;100.00;101199.13;5259252;28;20273;-80
2024/03/14 09:10:25;;;;;;;3.25;2.30;;;;;;;13.58;100.00;101201.78;5257465;28;20504;-80
2024/03/14 09:12:56;;;;;;;2.70;1.90;;;;;;;13.71;100.00;101197.03;5254336;28;20029;-81
2024/03/14 09:15:29;;;;;;;2.90;1.90;;;;;;;13.84;100.00;101204.63;5257201;28;21024;-81
2024/03/14 09:18:01;;;;;;;4.93;2.63;;;;;;;13.88;100.00;101212.09;5254524;28;20409;-80
2024/03/14 09:20:32;;;;;;;3.75;2.38;;;;;;;13.87;100.00;101205.19;5255664;28;20037;-81
2024/03/14 09:23:05;;;;;;;2.67;2.00;;;;;;;13.79;100.00;101210.34;5251562;28;20033;-81
2024/03/14 09:25:37;;;;;;;3.35;1.83;;;;;;;13.80;100.00;101206.72;5259977;28;20040;-81
2024/03/14 09:28:11;;;;;;;2.78;2.10;;;;;;;13.77;100.00;101206.19;5256526;28;20085;-81
2024/03/14 09:30:43;;;;;;;2.92;2.03;;;;;;;13.75;100.00;101206.34;5258954;28;20033;-82
2024/03/14 09:33:16;;;;;;;2.47;1.77;;;;;;;13.75;100.00;101193.16;5258110;28;20033;-81
2024/03/14 09:35:48;;;;;;;2.75;2.10;;;;;;;13.80;100.00;101195.38;5255436;28;20044;-80
2024/03/14 09:38:19;;;;;;;2.88;2.00;;;;;;;13.93;100.00;101198.50;5256722;28;20036;-80
2024/03/14 09:40:51;;;;;;;2.85;1.90;;;;;;;14.03;100.00;101194.03;5255006;28;20409;-80
2024/03/14 09:43:23;;;;;;;3.03;2.10;;;;;;;14.11;100.00;101183.59;5254989;28;20235;-80
2024/03/14 09:45:55;;;;;;;4.15;2.33;;;;;;;14.24;100.00;101188.53;5256271;28;20053;-80
2024/03/14 09:48:31;;;;;;;4.95;2.10;;;;;;;14.35;100.00;101172.53;5255674;28;20037;-80
2024/03/14 09:51:08;;;;;;;4.28;1.88;;;;;;;14.48;100.00;101190.66;5256611;28;20029;-80
2024/03/14 09:53:42;;;;;;;3.05;2.00;;;;;;;14.60;100.00;101172.84;5257038;28;20029;-80
2024/03/14 09:56:14;;;;;;;2.40;1.83;;;;;;;14.82;100.00;101185.63;5257143;28;20557;-80
2024/03/14 09:58:48;;;;;;;3.45;1.80;;;;;;;14.88;100.00;101173.63;5255486;28;20044;-80
2024/03/14 10:01:20;;;;;;;3.10;1.90;;;;;;;14.96;100.00;101181.63;5252221;28;20473;-80
2024/03/14 10:03:52;;;;;;;2.70;1.70;;;;;;;15.11;100.00;101174.00;5251365;28;20036;-80
2024/03/14 10:06:24;;;;;;;2.58;1.95;;;;;;;15.01;100.00;101165.34;5257394;28;20043;-80
2024/03/14 10:08:57;;;;;;;3.47;2.13;;;;;;;15.11;100.00;101174.00;5248520;28;20025;-80
2024/03/14 10:11:28;;;;;;;3.45;1.83;;;;;;;15.15;100.00;101170.06;5254836;28;20382;-80
2024/03/14 10:14:16;;;;;;;3.47;2.22;;;;;;;15.21;100.00;101174.75;5254027;28;20028;-80
2024/03/14 10:16:51;;;;;;;3.95;1.77;;;;;;;15.12;100.00;101173.03;5254220;28;20041;-80
2024/03/14 10:19:27;;;;;;;2.40;1.88;;;;;;;15.34;100.00;101169.06;5248384;28;20035;-80
2024/03/14 10:22:03;;;;;;;4.45;1.85;;;;;;;15.35;100.00;101157.56;5250698;28;20033;-80
2024/03/14 10:24:35;;;;;;;2.33;1.63;;;;;;;15.55;100.00;101166.13;5253795;28;20029;-80
2024/03/14 10:27:07;;;;;;;2.65;1.63;;;;;;;15.42;100.00;101140.13;5252975;28;20040;-81
2024/03/14 10:29:39;;;;;;;3.67;1.67;;;;;;;15.72;100.00;101167.91;5250930;28;20485;-81
2024/03/14 10:32:12;;;;;;;2.35;1.33;;;;;;;15.82;100.00;101162.50;5256956;28;20277;-81
2024/03/14 10:34:45;;;;;;;3.10;1.30;;;;;;;16.13;100.00;101162.00;5253192;28;20500;-81
2024/03/14 10:37:22;;;;;;;2.00;1.30;;;;;;;16.25;100.00;101163.38;5254132;28;20048;-81
2024/03/14 10:39:55;;;;;;;2.97;1.40;;;;;;;16.16;100.00;101157.22;5254935;28;20525;-81
2024/03/14 10:42:29;;;;;;;2.25;1.50;;;;;;;16.43;100.00;101140.31;5257751;28;20052;-81
2024/03/14 10:45:01;;;;;;;2.47;1.67;;;;;;;16.54;100.00;101139.19;5254838;28;20091;-81
2024/03/14 10:47:33;;;;;;;2.30;1.40;;;;;;;16.68;100.00;101146.50;5257802;28;20028;-81
2024/03/14 10:50:09;;;;;;;2.17;1.10;;;;;;;16.76;100.00;101143.06;5259262;28;20098;-81
2024/03/14 10:52:41;;;;;;;2.67;1.13;;;;;;;16.76;100.00;101146.53;5256722;28;20040;-81
2024/03/14 10:55:16;;;;;;;2.43;1.53;;;;;;;16.97;100.00;101147.88;5256830;28;20033;-81
2024/03/14 10:57:49;;;;;;;3.85;1.45;;;;;;;16.94;100.00;101132.34;5254216;28;20287;-81
2024/03/14 11:00:24;;;;;;;2.95;1.33;;;;;;;17.06;100.00;101128.38;5255024;28;20040;-81
2024/03/14 11:02:57;;;;;;;4.32;1.75;;;;;;;17.17;97.98;101132.50;5256541;28;20048;-81
2024/03/14 11:05:29;;;;;;;;;;;;;;;17.90;97.21;101124.44;5254252;28;20486;-81
2024/03/14 11:08:01;;;;;;;2.00;1.00;;;;;;;17.38;97.04;101119.56;5251424;28;19927;-81
2024/03/14 11:10:34;;;;;;;4.03;1.35;;;;;;;17.35;93.24;101119.91;5253773;28;20390;-81
2024/03/14 11:13:06;;;;;;;;;;;;;;;18.11;95.71;101113.25;5259913;28;20047;-81
2024/03/14 11:15:39;;;;;;;2.25;1.13;;;;;;;17.46;93.04;101102.81;5258217;28;20030;-81
2024/03/14 11:18:14;;;;;;;2.65;0.90;;;;;;;17.52;91.66;101112.75;5250763;28;20028;-81
2024/03/14 11:20:54;;;;;;;2.35;1.10;;;;;;;17.67;87.95;101108.41;5236492;28;20052;-81
2024/03/14 11:23:28;;;;;;;2.28;1.10;;;;;;;17.71;90.44;101101.78;5252366;28;20496;-81
2024/03/14 11:26:07;;;;;;;2.65;1.00;;;;;;;17.88;91.61;101096.44;5236528;28;20049;-81
2024/03/14 11:28:42;;;;;;;3.25;1.10;;;;;;;17.98;93.13;101100.53;5256541;28;20040;-81
2024/03/14 11:31:14;;;;;;;1.50;0.90;;;;;;;18.02;90.66;101097.53;5260803;28;20036;-81
2024/03/14 11:33:46;;;;;;;2.95;1.00;;;;;;;18.22;87.40;101088.16;5253404;28;20043;-81
2024/03/14 11:36:20;;;;;;;1.63;0.82;;;;;;;18.11;85.86;101084.09;5252134;28;20513;-81
2024/03/14 11:38:52;;;;;;;2.22;1.00;;;;;;;18.30;84.32;101084.66;5255702;28;20423;-81
2024/03/14 11:41:27;;;;;;;2.47;1.20;;;;;;;18.38;82.89;101081.97;5255161;28;20035;-81
2024/03/14 11:44:14;;;;;;;2.15;1.00;;;;;;;18.56;83.42;101079.84;5253382;28;20288;-81
2024/03/14 11:46:49;;;;;;;2.10;0.88;;;;;;;18.51;82.66;101078.72;5254101;28;20043;-81